Terminal Aerodrome Forecast
Issued by NWS

Home | Current Version | Previous Version | Text Only | Print | Product List | Glossary On
Versions: 1 2 3 4 5 6 7 8 9 10 11 12 13 14 15 16
000
FTUS42 KFFC 021700 RRA
TAFPDK
TAF
KPDK 021746Z 0218/0318 VRB05KT P6SM FEW035
     FM030400 17003KT P6SM BKN040
     FM030800 18003KT P6SM OVC030
     FM031100 17003KT 6SM -SHRA BR OVC009
     FM031200 17003KT 6SM SHRA BR OVC009
     FM031400 19005KT 6SM SHRA OVC015 PROB30 0315/0318 20008G14KT
      5SM TSRA BR BKN010 OVC025CB=

USA.gov is the U.S. government's official web portal to all federal, state and local government web resources and services.